createdAt,value
2017-12-06T00:02:13.368Z,17.73
2017-12-06T00:04:40.831Z,18.73
2017-12-06T00:07:08.333Z,16.93
2017-12-06T00:09:35.800Z,21.00
2017-12-06T00:12:03.275Z,16.47
2017-12-06T00:14:36.463Z,16.77
2017-12-06T00:17:04.028Z,16.17
2017-12-06T00:19:31.491Z,16.37
2017-12-06T00:21:59.748Z,19.10
2017-12-06T00:24:27.224Z,14.30
2017-12-06T00:26:54.710Z,20.13
2017-12-06T00:29:22.184Z,17.87
2017-12-06T00:31:49.659Z,20.27
2017-12-06T00:34:17.133Z,14.67
2017-12-06T00:36:44.613Z,15.70
2017-12-06T00:39:12.097Z,18.13
2017-12-06T00:41:40.329Z,15.53
2017-12-06T00:44:07.820Z,15.40
2017-12-06T00:46:36.065Z,17.77
2017-12-06T00:49:03.565Z,19.17
2017-12-06T00:51:31.807Z,18.43
2017-12-06T00:53:59.271Z,16.10
2017-12-06T00:56:26.751Z,15.83
2017-12-06T00:58:54.992Z,18.23
2017-12-06T01:01:22.468Z,15.20
2017-12-06T01:03:49.951Z,15.30
2017-12-06T01:06:17.429Z,15.87
2017-12-06T01:08:44.894Z,13.60
2017-12-06T01:11:12.361Z,16.40
2017-12-06T01:13:39.844Z,14.43
2017-12-06T01:16:07.319Z,12.50
2017-12-06T01:18:34.794Z,14.47
2017-12-06T01:23:56.555Z,16.43
2017-12-06T01:26:24.031Z,13.30
2017-12-06T01:28:51.503Z,14.40
2017-12-06T01:31:18.975Z,14.73
2017-12-06T01:33:46.459Z,16.50
2017-12-06T01:36:13.919Z,15.80
2017-12-06T01:38:42.908Z,14.50
2017-12-06T01:41:11.136Z,12.30
2017-12-06T01:43:38.616Z,12.97
2017-12-06T01:46:06.084Z,15.33
2017-12-06T01:48:33.656Z,12.57
2017-12-06T01:51:01.116Z,12.30
2017-12-06T01:53:28.600Z,14.50
2017-12-06T01:55:56.831Z,13.20
2017-12-06T01:58:24.328Z,15.43
2017-12-06T02:00:52.583Z,14.20
2017-12-06T02:03:20.052Z,13.53
2017-12-06T02:05:48.318Z,12.17
2017-12-06T02:08:15.790Z,12.40
2017-12-06T02:10:44.025Z,17.30
2017-12-06T02:13:11.503Z,13.07
2017-12-06T02:15:38.972Z,15.57
2017-12-06T02:18:06.468Z,12.17
2017-12-06T02:20:33.936Z,13.50
2017-12-06T02:23:01.423Z,12.47
2017-12-06T02:25:28.893Z,11.17
2017-12-06T02:27:56.376Z,11.10
2017-12-06T02:30:24.625Z,11.47
2017-12-06T02:35:44.772Z,11.10
2017-12-06T02:38:12.266Z,12.33
2017-12-06T02:40:51.639Z,11.30
2017-12-06T02:43:31.049Z,11.70
2017-12-06T02:45:58.534Z,11.33
2017-12-06T02:48:26.020Z,10.50
2017-12-06T02:50:54.264Z,8.70
2017-12-06T02:53:21.740Z,12.03
2017-12-06T02:55:50.004Z,9.53
2017-12-06T02:58:17.476Z,13.60
2017-12-06T03:00:45.720Z,14.33
2017-12-06T03:03:13.199Z,10.60
2017-12-06T03:05:40.684Z,9.60
2017-12-06T03:08:08.232Z,12.70
2017-12-06T03:10:36.485Z,12.23
2017-12-06T03:13:03.957Z,10.13
2017-12-06T03:15:31.434Z,11.27
2017-12-06T03:17:59.660Z,11.13
2017-12-06T03:20:27.147Z,12.40
2017-12-06T03:22:55.436Z,9.67
2017-12-06T03:25:23.676Z,13.60
2017-12-06T03:27:51.159Z,13.53
2017-12-06T03:30:18.624Z,11.80
2017-12-06T03:32:46.862Z,10.43
2017-12-06T03:35:14.340Z,13.20
2017-12-06T03:37:41.820Z,12.33
2017-12-06T03:40:09.291Z,10.93
2017-12-06T03:42:38.060Z,12.83
2017-12-06T03:45:05.530Z,10.87
2017-12-06T03:47:33.778Z,12.97
2017-12-06T03:50:01.247Z,8.93
2017-12-06T03:52:28.698Z,10.43
2017-12-06T03:54:56.987Z,10.00
2017-12-06T03:57:24.440Z,14.50
2017-12-06T03:59:51.898Z,11.90
2017-12-06T04:02:19.386Z,12.60
2017-12-06T04:04:47.611Z,12.50
2017-12-06T04:07:15.081Z,13.17
2017-12-06T04:09:42.560Z,10.70
2017-12-06T04:12:10.811Z,12.33
2017-12-06T04:14:38.265Z,13.03
2017-12-06T04:17:05.734Z,13.30
2017-12-06T04:19:33.197Z,12.87
2017-12-06T04:22:00.665Z,11.47
2017-12-06T04:24:28.907Z,11.30
2017-12-06T04:26:56.369Z,12.97
2017-12-06T04:29:23.833Z,14.07
2017-12-06T04:31:51.322Z,14.80
2017-12-06T04:34:18.783Z,12.30
2017-12-06T04:36:47.020Z,15.03
2017-12-06T04:39:14.490Z,12.23
2017-12-06T04:41:41.971Z,13.87
2017-12-06T04:44:10.210Z,10.40
2017-12-06T04:46:37.690Z,12.50
2017-12-06T04:49:05.167Z,16.83
2017-12-06T04:51:33.407Z,12.87
2017-12-06T04:54:00.875Z,12.93
2017-12-06T04:56:28.362Z,12.07
2017-12-06T04:58:56.587Z,11.73
2017-12-06T05:01:24.061Z,12.70
2017-12-06T05:03:51.545Z,12.83
2017-12-06T05:06:19.796Z,11.33
2017-12-06T05:08:47.259Z,14.60
2017-12-06T05:11:14.730Z,12.47
2017-12-06T05:13:42.194Z,14.03
2017-12-06T05:16:10.459Z,13.70
2017-12-06T05:18:37.917Z,14.93
2017-12-06T05:21:05.382Z,12.40
2017-12-06T05:23:32.858Z,15.17
2017-12-06T05:26:01.088Z,15.23
2017-12-06T05:28:28.571Z,14.80
2017-12-06T05:30:56.048Z,13.93
2017-12-06T05:33:24.281Z,13.80
2017-12-06T05:35:51.755Z,13.07
2017-12-06T05:38:19.245Z,11.57
2017-12-06T05:40:47.487Z,12.70
2017-12-06T05:43:14.970Z,11.73
2017-12-06T05:45:43.218Z,12.53
2017-12-06T05:48:10.700Z,13.50
2017-12-06T05:50:38.946Z,13.13
2017-12-06T05:53:06.456Z,12.60
2017-12-06T05:55:33.929Z,13.17
2017-12-06T05:58:01.418Z,13.57
2017-12-06T06:00:28.888Z,13.97
2017-12-06T06:02:56.365Z,16.10
2017-12-06T06:05:23.851Z,17.67
2017-12-06T06:07:51.330Z,14.63
2017-12-06T06:10:18.790Z,14.40
2017-12-06T06:12:46.267Z,15.30
2017-12-06T06:15:13.749Z,14.87
2017-12-06T06:17:41.245Z,14.97
2017-12-06T06:20:08.719Z,15.40
2017-12-06T06:22:36.191Z,14.20
2017-12-06T06:25:04.435Z,15.40
2017-12-06T06:27:31.926Z,14.50
2017-12-06T06:29:59.392Z,15.47
2017-12-06T06:32:26.854Z,14.03
2017-12-06T06:34:54.337Z,17.30
2017-12-06T06:37:21.801Z,16.37
2017-12-06T06:39:49.288Z,13.00
2017-12-06T06:42:16.756Z,17.10
2017-12-06T06:44:44.232Z,12.53
2017-12-06T06:47:11.716Z,16.03
2017-12-06T06:49:39.187Z,17.40
2017-12-06T06:52:06.656Z,15.50
2017-12-06T06:54:34.899Z,16.20
2017-12-06T06:57:02.362Z,13.30
2017-12-06T06:59:29.855Z,13.80
2017-12-06T07:01:58.078Z,16.77
2017-12-06T07:04:25.571Z,12.97
2017-12-06T07:06:53.029Z,14.77
2017-12-06T07:09:20.503Z,14.10
2017-12-06T07:11:48.745Z,18.03
2017-12-06T07:14:16.218Z,15.00
2017-12-06T07:16:43.690Z,15.73
2017-12-06T07:19:11.925Z,13.23
2017-12-06T07:21:39.388Z,13.47
2017-12-06T07:24:06.862Z,18.77
2017-12-06T07:26:34.322Z,13.13
2017-12-06T07:29:01.820Z,12.77
2017-12-06T07:31:29.273Z,14.93
2017-12-06T07:33:56.741Z,14.70
2017-12-06T07:36:24.220Z,13.80
2017-12-06T07:38:51.721Z,13.83
2017-12-06T07:41:19.196Z,14.40
2017-12-06T07:43:47.433Z,15.37
2017-12-06T07:46:14.902Z,15.23
2017-12-06T07:48:42.379Z,15.47
2017-12-06T07:51:09.849Z,14.53
2017-12-06T07:53:38.089Z,12.90
2017-12-06T07:56:05.570Z,13.80
2017-12-06T07:58:38.624Z,14.03
2017-12-06T08:01:06.871Z,14.33
2017-12-06T08:03:35.255Z,13.37
2017-12-06T08:06:02.743Z,18.17
2017-12-06T08:08:30.223Z,14.00
2017-12-06T08:10:57.698Z,11.43
2017-12-06T08:13:25.940Z,15.80
2017-12-06T08:15:53.427Z,15.23
2017-12-06T08:18:20.889Z,14.17
2017-12-06T08:20:49.135Z,16.90
2017-12-06T08:23:16.604Z,12.23
2017-12-06T08:25:44.073Z,14.83
2017-12-06T08:28:11.531Z,16.10
2017-12-06T08:30:48.660Z,20.67
2017-12-06T08:33:16.127Z,14.33
2017-12-06T08:35:43.618Z,12.93
2017-12-06T08:38:11.099Z,18.10
2017-12-06T08:40:39.757Z,18.03
2017-12-06T08:43:07.225Z,13.87
2017-12-06T08:45:34.714Z,21.13
2017-12-06T08:48:02.957Z,16.03
2017-12-06T08:50:30.429Z,15.80
2017-12-06T08:52:57.897Z,12.67
2017-12-06T08:55:26.135Z,16.00
2017-12-06T08:57:53.603Z,13.83
2017-12-06T09:00:21.085Z,13.43
2017-12-06T09:02:49.333Z,14.03
2017-12-06T09:05:16.817Z,14.97
2017-12-06T09:07:44.278Z,14.40
2017-12-06T09:10:11.754Z,15.70
2017-12-06T09:12:39.238Z,13.03
2017-12-06T09:15:06.751Z,15.00
2017-12-06T09:17:34.220Z,15.20
2017-12-06T09:20:02.455Z,21.33
2017-12-06T09:22:29.936Z,20.40
2017-12-06T09:24:57.410Z,13.90
2017-12-06T09:27:25.683Z,15.70
2017-12-06T09:29:53.144Z,14.30
2017-12-06T09:32:21.383Z,18.30
2017-12-06T09:34:48.865Z,15.60
2017-12-06T09:37:16.333Z,14.57
2017-12-06T09:39:43.804Z,14.27
2017-12-06T09:42:12.060Z,21.60
2017-12-06T09:44:39.513Z,13.97
2017-12-06T09:47:06.999Z,18.70
2017-12-06T09:49:35.235Z,17.53
2017-12-06T09:52:02.724Z,15.93
2017-12-06T09:54:30.188Z,18.07
2017-12-06T09:56:58.431Z,18.10
2017-12-06T09:59:25.917Z,14.90
2017-12-06T10:01:54.164Z,23.00
2017-12-06T10:04:21.648Z,15.17
2017-12-06T10:06:49.894Z,14.27
2017-12-06T10:09:17.405Z,18.20
2017-12-06T10:11:44.893Z,15.30
2017-12-06T10:14:12.364Z,14.47
2017-12-06T10:16:39.844Z,13.50
2017-12-06T10:19:07.314Z,12.43
2017-12-06T10:21:34.837Z,17.23
2017-12-06T10:24:02.319Z,12.70
2017-12-06T10:26:29.781Z,15.10
2017-12-06T10:28:57.256Z,12.90
2017-12-06T10:31:25.489Z,13.23
2017-12-06T10:33:52.976Z,12.93
2017-12-06T10:36:20.443Z,14.77
2017-12-06T10:38:48.692Z,12.20
2017-12-06T10:41:16.156Z,12.13
2017-12-06T10:43:43.647Z,16.30
2017-12-06T10:46:11.889Z,12.90
2017-12-06T10:48:39.354Z,14.97
2017-12-06T10:51:06.837Z,12.17
2017-12-06T10:53:35.085Z,13.17
2017-12-06T10:56:02.564Z,15.10
2017-12-06T10:58:30.799Z,13.87
2017-12-06T11:00:58.289Z,15.33
2017-12-06T11:03:25.752Z,15.97
2017-12-06T11:05:53.224Z,11.83
2017-12-06T11:08:21.468Z,15.93
2017-12-06T11:10:48.956Z,12.97
2017-12-06T11:13:17.187Z,13.70
2017-12-06T11:15:44.665Z,14.20
2017-12-06T11:18:12.153Z,14.53
2017-12-06T11:20:40.396Z,13.40
2017-12-06T11:23:07.875Z,21.33
2017-12-06T11:25:35.343Z,13.73
2017-12-06T11:28:03.580Z,12.00
2017-12-06T11:30:31.042Z,11.47
2017-12-06T11:32:58.519Z,13.10
2017-12-06T11:35:25.989Z,12.67
2017-12-06T11:37:54.228Z,15.00
2017-12-06T11:40:22.456Z,12.27
2017-12-06T11:42:50.701Z,12.97
2017-12-06T11:45:18.176Z,12.53
2017-12-06T11:47:45.646Z,12.10
2017-12-06T11:50:13.872Z,13.10
2017-12-06T11:52:41.353Z,13.70
2017-12-06T11:55:08.819Z,11.73
2017-12-06T11:57:36.296Z,12.00
2017-12-06T12:00:03.774Z,12.60
2017-12-06T12:02:31.252Z,11.77
2017-12-06T12:04:58.715Z,10.97
2017-12-06T12:07:26.191Z,15.20
2017-12-06T12:09:53.683Z,12.93
2017-12-06T12:12:21.922Z,12.63
2017-12-06T12:14:49.415Z,15.30
2017-12-06T12:17:17.653Z,13.83
2017-12-06T12:19:45.886Z,12.50
2017-12-06T12:22:13.363Z,11.40
2017-12-06T12:24:40.855Z,14.93
2017-12-06T12:27:08.329Z,12.20
2017-12-06T12:29:35.791Z,13.30
2017-12-06T12:32:04.066Z,14.17
2017-12-06T12:34:31.535Z,13.20
2017-12-06T12:36:59.776Z,12.83
2017-12-06T12:39:27.247Z,13.07
2017-12-06T12:41:55.056Z,13.33
2017-12-06T12:44:22.519Z,14.33
2017-12-06T12:46:49.988Z,15.10
2017-12-06T12:49:17.473Z,17.27
2017-12-06T12:51:44.951Z,12.93
2017-12-06T12:54:12.424Z,16.00
2017-12-06T12:56:39.904Z,17.00
2017-12-06T12:59:07.391Z,13.27
2017-12-06T13:01:34.855Z,14.30
2017-12-06T13:04:02.351Z,20.33
2017-12-06T13:06:29.829Z,13.70
2017-12-06T13:08:58.079Z,17.37
2017-12-06T13:11:25.547Z,14.07
2017-12-06T13:13:53.794Z,13.83
2017-12-06T13:16:21.257Z,16.13
2017-12-06T13:18:48.737Z,19.50
2017-12-06T13:21:16.976Z,18.30
2017-12-06T13:23:44.458Z,16.87
2017-12-06T13:26:11.931Z,14.23
2017-12-06T13:28:40.175Z,15.97
2017-12-06T13:31:07.657Z,18.40
2017-12-06T13:33:35.137Z,14.23
2017-12-06T13:36:03.376Z,13.43
2017-12-06T13:38:30.867Z,17.27
2017-12-06T13:40:59.099Z,13.53
2017-12-06T13:43:26.583Z,14.13
2017-12-06T13:45:54.070Z,14.60
2017-12-06T13:48:22.312Z,14.47
2017-12-06T13:50:49.780Z,14.77
2017-12-06T13:53:17.255Z,14.70
2017-12-06T13:55:45.491Z,16.10
2017-12-06T13:58:12.983Z,14.70
2017-12-06T14:00:41.216Z,14.03
2017-12-06T14:03:08.679Z,12.83
2017-12-06T14:05:36.160Z,13.17
2017-12-06T14:08:03.625Z,17.10
2017-12-06T14:10:31.104Z,13.73
2017-12-06T14:12:59.593Z,17.00
2017-12-06T14:15:27.071Z,13.53
2017-12-06T14:17:54.536Z,12.83
2017-12-06T14:20:22.018Z,12.97
2017-12-06T14:22:49.493Z,14.10
2017-12-06T14:25:16.977Z,12.30
2017-12-06T14:27:45.215Z,14.63
2017-12-06T14:30:12.683Z,9.60
2017-12-06T14:32:40.144Z,9.47
2017-12-06T14:35:07.628Z,9.50
2017-12-06T14:37:35.856Z,9.97
2017-12-06T14:40:03.327Z,9.20
2017-12-06T14:42:30.804Z,8.30
2017-12-06T14:44:59.047Z,12.83
2017-12-06T14:47:26.514Z,12.17
2017-12-06T14:49:53.984Z,13.83
2017-12-06T14:52:21.449Z,13.90
2017-12-06T14:54:50.591Z,8.67
2017-12-06T14:57:18.059Z,16.20
2017-12-06T14:59:59.014Z,9.47
2017-12-06T15:02:26.505Z,7.90
2017-12-06T15:04:53.992Z,11.70
2017-12-06T15:07:21.481Z,13.27
2017-12-06T15:09:51.450Z,9.73
2017-12-06T15:12:19.042Z,12.33
2017-12-06T15:14:47.281Z,8.77
2017-12-06T15:17:14.800Z,10.60
2017-12-06T15:19:42.279Z,10.80
2017-12-06T15:22:11.525Z,10.47
2017-12-06T15:24:39.783Z,14.47
2017-12-06T15:27:07.247Z,11.07
2017-12-06T15:29:34.731Z,10.37
2017-12-06T15:32:03.779Z,10.20
2017-12-06T15:34:31.266Z,13.40
2017-12-06T15:36:58.731Z,10.30
2017-12-06T15:39:26.195Z,13.13
2017-12-06T15:41:54.427Z,10.57
2017-12-06T15:44:21.904Z,12.80
2017-12-06T15:46:49.370Z,12.43
2017-12-06T15:52:10.320Z,11.00
2017-12-06T15:54:38.555Z,9.73
2017-12-06T15:57:06.025Z,10.53
2017-12-06T15:59:39.738Z,10.23
2017-12-06T16:02:07.196Z,8.70
2017-12-06T16:04:34.688Z,8.40
2017-12-06T16:07:02.143Z,7.93
2017-12-06T16:09:30.383Z,9.03
2017-12-06T16:11:57.847Z,7.93
2017-12-06T16:14:25.320Z,7.77
2017-12-06T16:16:53.545Z,7.87
2017-12-06T16:19:21.023Z,10.67
2017-12-06T16:21:48.490Z,6.90
2017-12-06T16:24:21.662Z,5.40
2017-12-06T16:26:49.131Z,6.30
2017-12-06T16:29:17.360Z,7.30
2017-12-06T16:31:44.828Z,8.13
2017-12-06T16:34:12.300Z,8.20
2017-12-06T16:36:51.707Z,6.50
2017-12-06T16:39:19.935Z,5.90
2017-12-06T16:41:47.425Z,5.63
2017-12-06T16:44:14.886Z,4.23
2017-12-06T16:46:43.127Z,6.53
2017-12-06T16:49:10.614Z,5.67
2017-12-06T16:51:38.110Z,7.80
2017-12-06T16:54:06.315Z,5.53
2017-12-06T16:56:33.796Z,5.63
2017-12-06T16:59:01.256Z,5.90
2017-12-06T17:01:28.744Z,6.90
2017-12-06T17:03:56.963Z,8.33
2017-12-06T17:06:24.436Z,9.40
2017-12-06T17:08:51.903Z,7.57
2017-12-06T17:11:19.372Z,7.80
2017-12-06T17:13:46.850Z,7.30
2017-12-06T17:16:15.070Z,6.03
2017-12-06T17:18:42.547Z,14.40
2017-12-06T17:21:10.004Z,7.77
2017-12-06T17:23:37.488Z,8.43
2017-12-06T17:26:05.716Z,7.40
2017-12-06T17:28:44.635Z,9.23
2017-12-06T17:31:23.960Z,13.07
2017-12-06T17:33:51.439Z,7.83
2017-12-06T17:36:18.899Z,7.53
2017-12-06T17:38:46.401Z,10.27
2017-12-06T17:41:13.859Z,11.43
2017-12-06T17:43:41.338Z,7.70
2017-12-06T17:46:08.812Z,6.97
2017-12-06T17:48:36.297Z,11.27
2017-12-06T17:51:03.777Z,7.30
2017-12-06T17:53:31.240Z,9.27
2017-12-06T17:55:58.699Z,6.80
2017-12-06T17:58:26.193Z,8.17
2017-12-06T18:00:54.408Z,7.53
2017-12-06T18:03:21.884Z,5.77
2017-12-06T18:05:49.371Z,7.23
2017-12-06T18:08:17.608Z,6.80
2017-12-06T18:10:45.072Z,5.90
2017-12-06T18:13:12.536Z,6.33
2017-12-06T18:15:40.005Z,9.07
2017-12-06T18:18:07.479Z,12.50
2017-12-06T18:20:35.716Z,7.77
2017-12-06T18:23:03.176Z,5.93
2017-12-06T18:25:30.656Z,6.90
2017-12-06T18:27:58.112Z,6.33
2017-12-06T18:30:25.587Z,9.87
2017-12-06T18:32:53.819Z,7.70
2017-12-06T18:35:21.283Z,5.47
2017-12-06T18:37:48.754Z,7.33
2017-12-06T18:40:16.227Z,5.90
2017-12-06T18:42:43.679Z,6.43
2017-12-06T18:45:11.175Z,4.70
2017-12-06T18:47:38.631Z,8.60
2017-12-06T18:50:06.121Z,6.30
2017-12-06T18:52:33.567Z,5.77
2017-12-06T18:55:01.052Z,5.43
2017-12-06T18:57:28.512Z,5.83
2017-12-06T18:59:56.005Z,5.53
2017-12-06T19:02:24.232Z,8.20
2017-12-06T19:04:51.748Z,7.40
2017-12-06T19:07:19.228Z,5.53
2017-12-06T19:09:46.691Z,5.80
2017-12-06T19:12:14.156Z,8.97
2017-12-06T19:14:41.652Z,5.70
2017-12-06T19:17:09.119Z,5.77
2017-12-06T19:19:36.583Z,6.77
2017-12-06T19:22:04.819Z,5.63
2017-12-06T19:24:32.478Z,5.77
2017-12-06T19:26:59.959Z,5.70
2017-12-06T19:29:27.428Z,5.70
2017-12-06T19:31:54.900Z,6.30
2017-12-06T19:34:23.140Z,6.23
2017-12-06T19:36:50.623Z,6.17
2017-12-06T19:39:18.087Z,6.50
2017-12-06T19:41:46.335Z,6.13
2017-12-06T19:44:13.792Z,6.03
2017-12-06T19:46:41.254Z,7.17
2017-12-06T19:49:08.767Z,8.93
2017-12-06T19:51:36.239Z,12.03
2017-12-06T19:54:03.704Z,8.70
2017-12-06T19:56:31.179Z,7.27
2017-12-06T19:59:04.878Z,6.73
2017-12-06T20:01:32.335Z,6.30
2017-12-06T20:03:59.824Z,6.70
2017-12-06T20:06:27.295Z,6.83
2017-12-06T20:08:55.521Z,6.97
2017-12-06T20:11:23.008Z,6.47
2017-12-06T20:13:50.480Z,7.10
2017-12-06T20:16:17.957Z,8.37
2017-12-06T20:18:45.428Z,5.63
2017-12-06T20:21:12.892Z,7.30
2017-12-06T20:23:40.355Z,6.77
2017-12-06T20:26:07.825Z,6.30
2017-12-06T20:28:35.283Z,7.67
2017-12-06T20:31:02.759Z,6.67
2017-12-06T20:33:30.227Z,6.47
2017-12-06T20:35:57.700Z,7.83
2017-12-06T20:38:25.160Z,9.30
2017-12-06T20:40:52.631Z,9.40
2017-12-06T20:43:20.869Z,5.73
2017-12-06T20:45:48.328Z,7.67
2017-12-06T20:48:15.787Z,5.77
2017-12-06T20:50:43.257Z,9.40
2017-12-06T20:53:10.725Z,5.17
2017-12-06T20:55:38.180Z,5.00
2017-12-06T20:58:05.652Z,5.80
2017-12-06T21:00:33.876Z,4.57
2017-12-06T21:03:01.339Z,5.57
2017-12-06T21:05:28.808Z,6.00
2017-12-06T21:07:56.276Z,6.13
2017-12-06T21:10:23.773Z,7.40
2017-12-06T21:12:51.219Z,3.83
2017-12-06T21:15:19.447Z,5.50
2017-12-06T21:17:46.924Z,8.00
2017-12-06T21:20:14.378Z,4.00
2017-12-06T21:22:41.902Z,5.43
2017-12-06T21:25:10.094Z,4.30
2017-12-06T21:27:37.559Z,6.83
2017-12-06T21:30:05.028Z,4.20
2017-12-06T21:32:32.520Z,4.27
2017-12-06T21:35:00.740Z,4.80
2017-12-06T21:37:28.214Z,4.17
2017-12-06T21:39:55.673Z,4.53
2017-12-06T21:42:23.159Z,5.60
2017-12-06T21:44:50.619Z,4.40
2017-12-06T21:47:18.087Z,3.90
2017-12-06T21:49:46.315Z,4.00
2017-12-06T21:52:14.563Z,3.77
2017-12-06T21:54:42.060Z,4.70
2017-12-06T21:57:09.519Z,3.27
2017-12-06T21:59:36.995Z,7.30
2017-12-06T22:02:04.472Z,3.67
2017-12-06T22:04:32.713Z,5.63
2017-12-06T22:07:00.208Z,5.17
2017-12-06T22:09:27.677Z,6.50
2017-12-06T22:11:55.901Z,5.27
2017-12-06T22:14:23.383Z,4.50
2017-12-06T22:16:50.842Z,4.40
2017-12-06T22:19:18.311Z,4.70
2017-12-06T22:21:46.540Z,4.07
2017-12-06T22:24:14.014Z,5.33
2017-12-06T22:26:41.487Z,3.50
2017-12-06T22:29:08.980Z,3.03
2017-12-06T22:31:36.489Z,3.23
2017-12-06T22:34:03.952Z,3.80
2017-12-06T22:36:31.411Z,3.73
2017-12-06T22:38:58.885Z,3.43
2017-12-06T22:41:26.355Z,2.80
2017-12-06T22:43:54.600Z,3.43
2017-12-06T22:46:22.086Z,5.00
2017-12-06T22:48:50.332Z,3.43
2017-12-06T22:51:17.787Z,3.90
2017-12-06T22:53:45.263Z,3.10
2017-12-06T22:56:12.727Z,2.80
2017-12-06T22:58:40.202Z,3.23
2017-12-06T23:01:08.432Z,3.27
2017-12-06T23:03:36.678Z,3.63
2017-12-06T23:06:04.169Z,3.10
2017-12-06T23:08:31.632Z,3.00
2017-12-06T23:10:59.111Z,2.03
2017-12-06T23:13:26.580Z,2.70
2017-12-06T23:15:54.091Z,2.67
2017-12-06T23:18:21.561Z,2.87
2017-12-06T23:20:49.023Z,3.00
2017-12-06T23:23:16.489Z,2.50
2017-12-06T23:25:43.973Z,2.73
2017-12-06T23:28:11.453Z,3.20
2017-12-06T23:30:38.920Z,2.97
2017-12-06T23:33:06.410Z,5.40
2017-12-06T23:35:33.910Z,2.87
2017-12-06T23:38:02.151Z,3.83
2017-12-06T23:40:29.640Z,4.10
2017-12-06T23:42:57.099Z,6.63
2017-12-06T23:45:25.352Z,3.57
2017-12-06T23:47:52.820Z,3.00
2017-12-06T23:50:20.308Z,4.03
2017-12-06T23:52:48.605Z,5.43
2017-12-06T23:55:16.155Z,3.70
2017-12-06T23:57:43.621Z,4.80
